Time;durP1;ratioP1;P1;durP2;ratioP2;P2;SDS_P1;SDS_P2;PMS_P1;PMS_P2;Temp;Humidity;BMP_temperature;BMP_pressure;BME280_temperature;BME280_humidity;BME280_pressure;Samples;Min_cycle;Max_cycle;Signal;HPM_P1;HPM_P2
2021/05/04 00:02:19;;;;;;;31.60;18.05;;;;;;;;;;5120259;28;20020;-80
2021/05/04 00:04:45;;;;;;;30.08;16.75;;;;;;;;;;5120070;28;20030;-80
2021/05/04 00:07:11;;;;;;;26.35;15.88;;;;;;;;;;5119429;28;20024;-79
2021/05/04 00:09:37;;;;;;;29.38;17.08;;;;;;;;;;5119728;28;20032;-79
2021/05/04 00:12:03;;;;;;;28.02;16.23;;;;;;;;;;5119630;28;20102;-80
2021/05/04 00:14:31;;;;;;;23.48;15.18;;;;;;;;;;5119545;28;20027;-80
2021/05/04 00:16:57;;;;;;;24.75;15.05;;;;;;;;;;5119797;28;20321;-79
2021/05/04 00:19:23;;;;;;;25.67;16.10;;;;;;;;;;5113788;28;20024;-80
2021/05/04 00:21:49;;;;;;;25.23;15.65;;;;;;;;;;5116990;28;20124;-80
2021/05/04 00:24:15;;;;;;;23.63;15.02;;;;;;;;;;5118316;28;20111;-80
2021/05/04 00:26:41;;;;;;;20.52;14.95;;;;;;;;;;5118407;28;20066;-80
2021/05/04 00:29:07;;;;;;;23.08;14.55;;;;;;;;;;5100973;28;20028;-80
2021/05/04 00:31:33;;;;;;;29.00;15.25;;;;;;;;;;5118340;28;20019;-80
2021/05/04 00:33:59;;;;;;;23.85;14.55;;;;;;;;;;5119320;28;20326;-80
2021/05/04 00:36:26;;;;;;;23.90;15.27;;;;;;;;;;5119663;28;20042;-81
2021/05/04 00:38:52;;;;;;;31.73;15.02;;;;;;;;;;5119577;28;20030;-80
2021/05/04 00:41:18;;;;;;;25.50;15.65;;;;;;;;;;5119501;28;20347;-79
2021/05/04 00:43:44;;;;;;;21.73;14.45;;;;;;;;;;5119406;28;20024;-79
2021/05/04 00:46:10;;;;;;;25.10;16.10;;;;;;;;;;5118995;28;20031;-80
2021/05/04 00:48:36;;;;;;;24.85;14.68;;;;;;;;;;5118720;28;20041;-80
2021/05/04 00:51:03;;;;;;;24.77;15.18;;;;;;;;;;5117888;28;20116;-80
2021/05/04 00:53:31;;;;;;;25.20;16.05;;;;;;;;;;5118752;28;20038;-80
2021/05/04 00:55:58;;;;;;;23.42;14.80;;;;;;;;;;5117880;28;20461;-81
2021/05/04 00:58:44;;;;;;;24.45;14.05;;;;;;;;;;5118840;28;20026;-81
2021/05/04 01:01:10;;;;;;;25.58;14.32;;;;;;;;;;5117885;28;20047;-80
2021/05/04 01:03:36;;;;;;;21.35;15.02;;;;;;;;;;5117790;28;20040;-80
2021/05/04 01:06:02;;;;;;;23.25;14.70;;;;;;;;;;5118655;28;20024;-80
2021/05/04 01:08:28;;;;;;;21.13;14.98;;;;;;;;;;5118575;28;20024;-81
2021/05/04 01:10:56;;;;;;;21.77;14.35;;;;;;;;;;5118758;28;20020;-80
2021/05/04 01:13:22;;;;;;;22.27;15.70;;;;;;;;;;5118817;28;20024;-80
2021/05/04 01:15:48;;;;;;;22.27;14.60;;;;;;;;;;5118584;28;20023;-80
2021/05/04 01:18:14;;;;;;;23.70;15.15;;;;;;;;;;5118054;28;20180;-81
2021/05/04 01:20:42;;;;;;;27.20;16.55;;;;;;;;;;5118466;28;20416;-80
2021/05/04 01:23:08;;;;;;;22.20;15.18;;;;;;;;;;5118274;28;20352;-81
2021/05/04 01:25:34;;;;;;;24.40;15.68;;;;;;;;;;5118356;28;20290;-80
2021/05/04 01:28:00;;;;;;;24.27;15.40;;;;;;;;;;5118390;28;20049;-81
2021/05/04 01:30:45;;;;;;;22.40;14.40;;;;;;;;;;5118602;28;20020;-80
2021/05/04 01:33:11;;;;;;;21.95;15.07;;;;;;;;;;5118407;28;20023;-81
2021/05/04 01:35:37;;;;;;;20.08;14.35;;;;;;;;;;5116842;28;20028;-80
2021/05/04 01:38:04;;;;;;;19.08;14.65;;;;;;;;;;5118231;28;20024;-80
2021/05/04 01:40:30;;;;;;;19.75;14.25;;;;;;;;;;5118297;28;20044;-80
2021/05/04 01:42:56;;;;;;;21.80;15.35;;;;;;;;;;5118125;28;20027;-81
2021/05/04 01:45:22;;;;;;;22.23;14.98;;;;;;;;;;5118056;28;20023;-80
2021/05/04 01:47:48;;;;;;;18.95;14.85;;;;;;;;;;5118266;28;20024;-80
2021/05/04 01:50:15;;;;;;;22.40;15.30;;;;;;;;;;5118310;28;20015;-80
2021/05/04 01:52:41;;;;;;;21.48;14.77;;;;;;;;;;5116787;28;20036;-80
2021/05/04 01:55:08;;;;;;;21.60;14.88;;;;;;;;;;5118031;28;20102;-81
2021/05/04 01:57:34;;;;;;;19.63;14.48;;;;;;;;;;5117952;28;20020;-80
2021/05/04 02:00:18;;;;;;;19.85;14.65;;;;;;;;;;5116710;28;20425;-80
2021/05/04 02:02:44;;;;;;;20.35;15.05;;;;;;;;;;5116782;28;20031;-81
2021/05/04 02:05:11;;;;;;;34.65;19.48;;;;;;;;;;5117746;28;20030;-80
2021/05/04 02:07:37;;;;;;;27.13;17.58;;;;;;;;;;5117445;28;20117;-80
2021/05/04 02:10:04;;;;;;;29.08;19.15;;;;;;;;;;5117932;28;20372;-80
2021/05/04 02:12:30;;;;;;;31.17;19.42;;;;;;;;;;5117801;28;20046;-81
2021/05/04 02:14:56;;;;;;;29.38;17.98;;;;;;;;;;5117786;28;20016;-81
2021/05/04 02:17:22;;;;;;;28.90;18.42;;;;;;;;;;5117606;28;20024;-81
2021/05/04 02:19:48;;;;;;;28.77;18.00;;;;;;;;;;5117868;28;20034;-80
2021/05/04 02:22:15;;;;;;;26.35;16.83;;;;;;;;;;5116329;28;20078;-80
2021/05/04 02:24:41;;;;;;;24.65;16.50;;;;;;;;;;5117766;28;20027;-80
2021/05/04 02:27:07;;;;;;;24.13;16.38;;;;;;;;;;5117567;28;20023;-80
2021/05/04 02:29:33;;;;;;;22.83;16.23;;;;;;;;;;5120092;28;20024;-80
2021/05/04 02:31:59;;;;;;;22.08;15.63;;;;;;;;;;5121926;28;20039;-80
2021/05/04 02:34:25;;;;;;;21.70;15.32;;;;;;;;;;5120734;28;20035;-81
2021/05/04 02:36:51;;;;;;;22.67;15.95;;;;;;;;;;5120707;28;20058;-80
2021/05/04 02:39:17;;;;;;;21.65;14.98;;;;;;;;;;5121941;28;20012;-81
2021/05/04 02:41:43;;;;;;;31.05;19.67;;;;;;;;;;5120726;28;20035;-81
2021/05/04 02:44:10;;;;;;;33.90;22.52;;;;;;;;;;5121620;28;20020;-81
2021/05/04 02:46:36;;;;;;;31.67;20.70;;;;;;;;;;5121504;28;20042;-81
2021/05/04 02:49:03;;;;;;;28.77;19.42;;;;;;;;;;5120425;28;20073;-80
2021/05/04 02:51:29;;;;;;;30.75;19.73;;;;;;;;;;5121560;28;20059;-80
2021/05/04 02:53:55;;;;;;;31.17;18.98;;;;;;;;;;5121047;28;20031;-81
2021/05/04 02:56:21;;;;;;;32.83;20.20;;;;;;;;;;5120523;28;20070;-81
2021/05/04 02:59:06;;;;;;;51.05;26.98;;;;;;;;;;5121771;28;20081;-82
2021/05/04 03:01:32;;;;;;;62.13;33.05;;;;;;;;;;5120168;28;20073;-81
2021/05/04 03:03:58;;;;;;;65.38;34.42;;;;;;;;;;5121250;28;20028;-81
2021/05/04 03:06:24;;;;;;;57.15;31.63;;;;;;;;;;5121083;28;20119;-80
2021/05/04 03:08:50;;;;;;;60.00;33.08;;;;;;;;;;5121212;28;20031;-80
2021/05/04 03:11:16;;;;;;;52.38;30.75;;;;;;;;;;5120073;28;20024;-79
2021/05/04 03:14:00;;;;;;;48.90;28.35;;;;;;;;;;5120865;28;20386;-79
2021/05/04 03:16:27;;;;;;;43.72;24.98;;;;;;;;;;5121011;28;20022;-79
2021/05/04 03:18:53;;;;;;;41.58;25.70;;;;;;;;;;5120911;28;20024;-82
2021/05/04 03:21:19;;;;;;;41.35;23.92;;;;;;;;;;5120794;28;20023;-81
2021/05/04 03:23:47;;;;;;;38.10;23.15;;;;;;;;;;5119720;28;20085;-80
2021/05/04 03:26:14;;;;;;;37.80;23.13;;;;;;;;;;5120784;28;20072;-80
2021/05/04 03:28:40;;;;;;;37.47;22.55;;;;;;;;;;5120600;28;20031;-80
2021/05/04 03:31:06;;;;;;;38.00;22.15;;;;;;;;;;5119578;28;20028;-80
2021/05/04 03:33:32;;;;;;;36.72;22.48;;;;;;;;;;5120570;28;20428;-80
2021/05/04 03:35:58;;;;;;;33.75;21.35;;;;;;;;;;5120871;28;20313;-80
2021/05/04 03:38:25;;;;;;;34.30;21.35;;;;;;;;;;5119567;28;20020;-80
2021/05/04 03:40:51;;;;;;;35.70;21.20;;;;;;;;;;5119700;28;20020;-80
2021/05/04 03:43:17;;;;;;;33.30;20.63;;;;;;;;;;5119592;28;20020;-80
2021/05/04 03:45:43;;;;;;;29.90;18.38;;;;;;;;;;5120456;28;20028;-80
2021/05/04 03:48:10;;;;;;;31.88;19.38;;;;;;;;;;5120720;28;20031;-80
2021/05/04 03:50:36;;;;;;;33.78;18.73;;;;;;;;;;5119211;28;20425;-80
2021/05/04 03:53:02;;;;;;;36.72;19.17;;;;;;;;;;5120119;28;20028;-80
2021/05/04 03:55:29;;;;;;;31.45;17.83;;;;;;;;;;5120459;28;20069;-80
2021/05/04 03:57:55;;;;;;;31.98;17.13;;;;;;;;;;5119067;28;20023;-80
2021/05/04 04:00:21;;;;;;;27.60;18.67;;;;;;;;;;5120481;28;20062;-80
2021/05/04 04:02:47;;;;;;;36.53;22.65;;;;;;;;;;5118986;28;20065;-80
2021/05/04 04:05:13;;;;;;;37.20;22.33;;;;;;;;;;5120055;28;20030;-80
2021/05/04 04:07:40;;;;;;;29.75;20.30;;;;;;;;;;5120138;28;20027;-80
2021/05/04 04:10:07;;;;;;;28.75;17.83;;;;;;;;;;5118690;28;20035;-79
2021/05/04 04:12:33;;;;;;;26.40;18.35;;;;;;;;;;5118608;28;20038;-79
2021/05/04 04:14:59;;;;;;;31.50;20.25;;;;;;;;;;5118503;28;20016;-80
2021/05/04 04:17:25;;;;;;;32.72;21.85;;;;;;;;;;5120027;28;20031;-80
2021/05/04 04:19:51;;;;;;;39.40;21.00;;;;;;;;;;5119816;28;20095;-80
2021/05/04 04:22:17;;;;;;;32.33;20.38;;;;;;;;;;5119487;28;20412;-80
2021/05/04 04:24:43;;;;;;;30.40;19.38;;;;;;;;;;5119959;28;20368;-80
2021/05/04 04:27:09;;;;;;;28.70;19.00;;;;;;;;;;5119863;28;20030;-81
2021/05/04 04:29:36;;;;;;;30.00;18.08;;;;;;;;;;5119387;28;20085;-80
2021/05/04 04:32:02;;;;;;;34.60;19.38;;;;;;;;;;5119449;28;20028;-81
2021/05/04 04:34:28;;;;;;;32.60;19.67;;;;;;;;;;5119794;28;20068;-81
2021/05/04 04:36:55;;;;;;;37.85;21.27;;;;;;;;;;5117676;28;20413;-79
2021/05/04 04:39:21;;;;;;;36.60;20.98;;;;;;;;;;5119294;28;20442;-79
2021/05/04 04:41:47;;;;;;;35.80;21.70;;;;;;;;;;5119407;28;20065;-80
2021/05/04 04:44:13;;;;;;;37.17;21.05;;;;;;;;;;5119185;28;20024;-80
2021/05/04 04:46:43;;;;;;;36.65;22.48;;;;;;;;;;5119084;28;20028;-80
2021/05/04 04:49:10;;;;;;;34.83;20.95;;;;;;;;;;5118909;28;20026;-80
2021/05/04 04:51:36;;;;;;;40.40;21.38;;;;;;;;;;5118354;28;20035;-80
2021/05/04 04:54:03;;;;;;;39.95;21.55;;;;;;;;;;5118318;28;20102;-80
2021/05/04 04:56:29;;;;;;;42.80;21.90;;;;;;;;;;5117934;28;20024;-80
2021/05/04 04:59:14;;;;;;;35.55;22.08;;;;;;;;;;5119172;28;20041;-87
2021/05/04 05:01:40;;;;;;;38.90;20.95;;;;;;;;;;5119511;28;20016;-88
2021/05/04 05:04:07;;;;;;;36.00;19.88;;;;;;;;;;5119296;28;20031;-87
2021/05/04 05:06:33;;;;;;;34.92;19.60;;;;;;;;;;5119557;28;20023;-86
2021/05/04 05:09:01;;;;;;;31.90;18.83;;;;;;;;;;5118199;28;20054;-87
2021/05/04 05:11:27;;;;;;;41.10;21.05;;;;;;;;;;5118427;28;20111;-87
2021/05/04 05:16:57;;;;;;;39.38;25.13;;;;;;;;;;5119439;28;20069;-86
2021/05/04 05:19:23;;;;;;;32.88;20.40;;;;;;;;;;5111778;28;20027;-87
2021/05/04 05:21:49;;;;;;;36.05;22.35;;;;;;;;;;5102001;28;20028;-87
2021/05/04 05:24:15;;;;;;;60.47;41.28;;;;;;;;;;5103850;28;20027;-87
2021/05/04 05:26:41;;;;;;;35.35;23.00;;;;;;;;;;5097631;28;20341;-87
2021/05/04 05:29:07;;;;;;;41.03;21.15;;;;;;;;;;5098881;28;20028;-87
2021/05/04 05:31:34;;;;;;;33.05;20.05;;;;;;;;;;5097244;28;20039;-87
2021/05/04 05:34:01;;;;;;;32.60;20.65;;;;;;;;;;5113239;28;20065;-87
2021/05/04 05:36:27;;;;;;;27.00;19.40;;;;;;;;;;5117703;28;20459;-87
2021/05/04 05:38:53;;;;;;;31.63;19.42;;;;;;;;;;5118625;28;20024;-86
2021/05/04 05:41:19;;;;;;;26.40;18.02;;;;;;;;;;5118952;28;20142;-86
2021/05/04 05:43:45;;;;;;;29.67;18.10;;;;;;;;;;5110790;28;20032;-86
2021/05/04 05:52:38;;;;;;;24.27;14.55;;;;;;;;;;5098276;28;20371;-87
2021/05/04 05:55:04;;;;;;;17.30;13.27;;;;;;;;;;5098425;28;20043;-87
2021/05/04 05:57:30;;;;;;;22.13;13.30;;;;;;;;;;5118184;28;20019;-87
2021/05/04 05:59:56;;;;;;;17.00;13.45;;;;;;;;;;5098201;28;20075;-87
2021/05/04 06:02:22;;;;;;;22.50;14.27;;;;;;;;;;5098364;28;20039;-86
2021/05/04 06:04:48;;;;;;;18.50;13.20;;;;;;;;;;5113579;28;20065;-87
2021/05/04 06:07:14;;;;;;;17.20;12.65;;;;;;;;;;5113810;28;20478;-86
2021/05/04 06:09:41;;;;;;;20.15;14.00;;;;;;;;;;5113791;28;20016;-87
2021/05/04 06:12:07;;;;;;;16.65;12.20;;;;;;;;;;5098113;28;20020;-86
2021/05/04 06:14:33;;;;;;;19.67;13.25;;;;;;;;;;5113749;28;20032;-87
2021/05/04 06:16:59;;;;;;;18.80;12.27;;;;;;;;;;5097771;28;20021;-86
2021/05/04 06:19:25;;;;;;;15.90;12.07;;;;;;;;;;5113728;28;20085;-86
2021/05/04 06:21:51;;;;;;;16.55;11.90;;;;;;;;;;5097549;28;20032;-86
2021/05/04 06:24:19;;;;;;;16.90;11.45;;;;;;;;;;5097792;28;20311;-88
2021/05/04 06:26:45;;;;;;;14.73;11.73;;;;;;;;;;5097709;28;20032;-86
2021/05/04 06:29:11;;;;;;;15.05;10.60;;;;;;;;;;5113229;28;20066;-86
2021/05/04 06:31:37;;;;;;;13.40;9.70;;;;;;;;;;5097668;28;20020;-87
2021/05/04 06:34:05;;;;;;;15.43;9.68;;;;;;;;;;5097519;28;20027;-87
2021/05/04 06:36:31;;;;;;;14.15;9.75;;;;;;;;;;5113377;28;20032;-86
2021/05/04 06:38:58;;;;;;;10.48;8.88;;;;;;;;;;5097495;28;20016;-87
2021/05/04 06:41:24;;;;;;;15.15;10.73;;;;;;;;;;5113641;28;20027;-86
2021/05/04 06:43:51;;;;;;;13.30;9.80;;;;;;;;;;5097751;28;20031;-87
2021/05/04 06:46:17;;;;;;;26.58;10.20;;;;;;;;;;5097362;28;20437;-86
2021/05/04 06:48:43;;;;;;;25.75;17.05;;;;;;;;;;5097560;28;20024;-87
2021/05/04 06:51:09;;;;;;;11.93;8.05;;;;;;;;;;5096928;28;20020;-86
2021/05/04 06:53:35;;;;;;;10.50;7.55;;;;;;;;;;5097320;28;20054;-87
2021/05/04 06:56:01;;;;;;;10.38;7.43;;;;;;;;;;5097393;28;20428;-87
2021/05/04 06:58:27;;;;;;;15.13;8.45;;;;;;;;;;5113432;28;20028;-87
2021/05/04 07:00:53;;;;;;;12.50;7.30;;;;;;;;;;5097365;28;20027;-86
2021/05/04 07:03:19;;;;;;;10.18;5.90;;;;;;;;;;5097306;28;20047;-88
2021/05/04 07:05:45;;;;;;;10.30;6.43;;;;;;;;;;5097487;28;20027;-88
2021/05/04 07:08:11;;;;;;;10.77;5.82;;;;;;;;;;5097488;28;20028;-88
2021/05/04 07:10:37;;;;;;;9.52;5.75;;;;;;;;;;5116429;28;20032;-88
2021/05/04 07:13:04;;;;;;;9.43;5.57;;;;;;;;;;5118108;28;20020;-87
2021/05/04 07:15:30;;;;;;;11.48;5.80;;;;;;;;;;5118502;28;20019;-86
2021/05/04 07:17:56;;;;;;;9.00;4.45;;;;;;;;;;5120136;28;20027;-87
2021/05/04 07:20:22;;;;;;;19.10;5.50;;;;;;;;;;5121406;28;20102;-87
2021/05/04 07:22:54;;;;;;;12.85;5.03;;;;;;;;;;5121050;28;20048;-87
2021/05/04 07:25:21;;;;;;;7.85;5.07;;;;;;;;;;5120647;28;20160;-83
2021/05/04 07:27:47;;;;;;;23.77;13.90;;;;;;;;;;5120603;28;20102;-79
2021/05/04 07:30:14;;;;;;;107.18;69.03;;;;;;;;;;5120636;28;20031;-79
2021/05/04 07:32:40;;;;;;;40.80;23.42;;;;;;;;;;5119446;28;20035;-79
2021/05/04 07:35:06;;;;;;;77.00;48.90;;;;;;;;;;5120543;28;20028;-80
2021/05/04 07:37:35;;;;;;;75.20;47.30;;;;;;;;;;5120856;28;20066;-81
2021/05/04 07:40:02;;;;;;;74.95;48.45;;;;;;;;;;5111700;28;20048;-81
2021/05/04 07:42:28;;;;;;;50.83;31.55;;;;;;;;;;5100312;28;20020;-80
2021/05/04 07:44:54;;;;;;;11.23;6.45;;;;;;;;;;5100005;28;20024;-80
2021/05/04 07:47:20;;;;;;;56.63;36.08;;;;;;;;;;5100014;28;20035;-81
2021/05/04 07:49:47;;;;;;;15.27;8.35;;;;;;;;;;5098498;28;20032;-80
2021/05/04 07:52:13;;;;;;;44.67;29.75;;;;;;;;;;5099790;28;20019;-80
2021/05/04 07:54:41;;;;;;;18.10;9.68;;;;;;;;;;5100121;28;20020;-80
2021/05/04 07:57:07;;;;;;;21.10;9.02;;;;;;;;;;5099812;28;20016;-79
2021/05/04 07:59:33;;;;;;;22.48;11.10;;;;;;;;;;5098217;28;20453;-79
2021/05/04 08:02:02;;;;;;;26.17;15.30;;;;;;;;;;5097946;28;20036;-80
2021/05/04 08:04:28;;;;;;;25.77;15.05;;;;;;;;;;5099654;28;20410;-80
2021/05/04 08:06:56;;;;;;;9.75;6.40;;;;;;;;;;5099850;28;20325;-80
2021/05/04 08:09:22;;;;;;;11.00;5.68;;;;;;;;;;5098122;28;20086;-81
2021/05/04 08:11:48;;;;;;;10.35;5.82;;;;;;;;;;5099481;28;20111;-80
2021/05/04 08:14:15;;;;;;;19.63;12.02;;;;;;;;;;5097835;28;20032;-80
2021/05/04 08:16:41;;;;;;;20.38;12.07;;;;;;;;;;5098475;28;20016;-80
2021/05/04 08:19:07;;;;;;;18.92;9.55;;;;;;;;;;5099515;28;20031;-81
2021/05/04 08:21:34;;;;;;;8.15;4.78;;;;;;;;;;5099195;28;20017;-81
2021/05/04 08:24:01;;;;;;;8.32;4.95;;;;;;;;;;5099020;28;20429;-81
2021/05/04 08:26:27;;;;;;;14.50;5.70;;;;;;;;;;5097803;28;20047;-81
2021/05/04 08:28:54;;;;;;;8.05;4.32;;;;;;;;;;5097776;28;20437;-80
2021/05/04 08:31:20;;;;;;;8.25;5.07;;;;;;;;;;5099053;28;20384;-80
2021/05/04 08:33:46;;;;;;;9.30;5.32;;;;;;;;;;5097395;28;20047;-79
2021/05/04 08:36:13;;;;;;;9.52;4.60;;;;;;;;;;5099174;28;20054;-82
2021/05/04 08:38:39;;;;;;;9.00;4.50;;;;;;;;;;5099096;28;20024;-88
2021/05/04 08:41:06;;;;;;;7.75;4.10;;;;;;;;;;5099269;28;20022;-85
2021/05/04 08:43:34;;;;;;;9.15;4.30;;;;;;;;;;5099312;28;20040;-85
2021/05/04 08:46:00;;;;;;;10.77;4.20;;;;;;;;;;5099558;28;20038;-86
2021/05/04 08:48:26;;;;;;;8.38;3.92;;;;;;;;;;5099489;28;20372;-86
2021/05/04 08:50:53;;;;;;;6.22;3.22;;;;;;;;;;5098920;28;20045;-85
2021/05/04 08:53:19;;;;;;;9.80;5.30;;;;;;;;;;5099095;28;20402;-86
2021/05/04 08:55:45;;;;;;;10.02;3.92;;;;;;;;;;5098835;28;20028;-87
2021/05/04 08:58:11;;;;;;;7.72;4.38;;;;;;;;;;5099101;28;20019;-87
2021/05/04 09:00:38;;;;;;;5.82;3.83;;;;;;;;;;5098539;28;20115;-87
2021/05/04 09:03:17;;;;;;;5.30;3.40;;;;;;;;;;5097505;28;20035;-86
2021/05/04 09:06:02;;;;;;;9.15;3.97;;;;;;;;;;5098904;28;20028;-86
2021/05/04 09:16:37;;;;;;;8.70;3.80;;;;;;;;;;5098765;28;20088;-88
2021/05/04 09:19:17;;;;;;;6.20;3.75;;;;;;;;;;5098713;28;20035;-88
2021/05/04 09:21:44;;;;;;;9.18;5.55;;;;;;;;;;5097360;28;20137;-89
2021/05/04 09:24:24;;;;;;;6.10;3.10;;;;;;;;;;5098345;28;20418;-88
2021/05/04 09:26:56;;;;;;;4.43;3.25;;;;;;;;;;5098911;28;20035;-88
2021/05/04 09:29:27;;;;;;;8.25;4.05;;;;;;;;;;5097473;28;20299;-89
2021/05/04 09:31:53;;;;;;;10.57;3.72;;;;;;;;;;5098412;28;20034;-88
2021/05/04 09:34:20;;;;;;;4.55;3.13;;;;;;;;;;5098217;28;20401;-88
2021/05/04 09:36:51;;;;;;;4.90;3.20;;;;;;;;;;5097349;28;20024;-88
2021/05/04 09:39:26;;;;;;;5.97;3.40;;;;;;;;;;5096684;28;20031;-88
2021/05/04 09:41:53;;;;;;;6.35;3.20;;;;;;;;;;5097150;28;20031;-88
2021/05/04 09:44:37;;;;;;;8.65;3.45;;;;;;;;;;5097421;28;20024;-88
2021/05/04 09:47:05;;;;;;;7.15;3.25;;;;;;;;;;5097306;28;20048;-88
2021/05/04 09:49:40;;;;;;;4.13;3.30;;;;;;;;;;5097129;28;20422;-88
2021/05/04 09:52:17;;;;;;;6.95;3.10;;;;;;;;;;5098360;28;20051;-88
2021/05/04 09:54:44;;;;;;;6.93;2.90;;;;;;;;;;5096841;28;20380;-88
2021/05/04 09:57:29;;;;;;;5.40;2.83;;;;;;;;;;5097901;28;20020;-88
2021/05/04 09:59:56;;;;;;;10.10;3.50;;;;;;;;;;5098215;28;20026;-88
2021/05/04 10:02:22;;;;;;;5.03;2.63;;;;;;;;;;5096623;28;20111;-88
2021/05/04 10:04:50;;;;;;;5.93;3.58;;;;;;;;;;5097068;28;20069;-87
2021/05/04 10:07:16;;;;;;;6.95;3.72;;;;;;;;;;5097782;28;20024;-89
2021/05/04 10:09:42;;;;;;;11.02;3.15;;;;;;;;;;5097874;28;20050;-87
2021/05/04 10:12:09;;;;;;;7.43;3.00;;;;;;;;;;5097577;28;20116;-87
2021/05/04 10:14:35;;;;;;;6.07;3.53;;;;;;;;;;5097840;28;20348;-88
2021/05/04 10:17:02;;;;;;;4.90;2.85;;;;;;;;;;5096438;28;20429;-88
2021/05/04 10:19:28;;;;;;;5.13;2.88;;;;;;;;;;5096685;28;20032;-88
2021/05/04 10:21:56;;;;;;;4.53;2.65;;;;;;;;;;5096798;28;20029;-88
2021/05/04 10:24:23;;;;;;;3.70;2.92;;;;;;;;;;5097860;28;20081;-88
2021/05/04 10:26:51;;;;;;;4.78;3.05;;;;;;;;;;5097709;28;20028;-88
2021/05/04 10:29:17;;;;;;;5.50;2.67;;;;;;;;;;5097824;28;20020;-89
2021/05/04 10:31:45;;;;;;;5.10;3.15;;;;;;;;;;5096363;28;20035;-88
2021/05/04 10:34:24;;;;;;;6.30;2.95;;;;;;;;;;5096250;28;20040;-88
2021/05/04 10:36:54;;;;;;;7.72;2.80;;;;;;;;;;5097547;28;20055;-89
2021/05/04 10:39:52;;;;;;;5.10;2.70;;;;;;;;;;5096420;28;20063;-88
2021/05/04 10:42:34;;;;;;;5.32;2.50;;;;;;;;;;5016029;28;20034;-89
2021/05/04 10:45:00;;;;;;;5.03;2.72;;;;;;;;;;5015897;28;20340;-88
2021/05/04 10:47:44;;;;;;;8.23;3.38;;;;;;;;;;4999377;28;20050;-89
2021/05/04 10:50:12;;;;;;;4.95;2.55;;;;;;;;;;5017558;28;20197;-88
2021/05/04 10:52:54;;;;;;;4.38;2.40;;;;;;;;;;5019554;28;20048;-89
2021/05/04 10:55:24;;;;;;;4.85;2.88;;;;;;;;;;5019530;28;20041;-88
2021/05/04 10:58:08;;;;;;;6.00;2.58;;;;;;;;;;5019721;28;20030;-88
2021/05/04 11:00:52;;;;;;;10.45;2.38;;;;;;;;;;5019761;28;20057;-87
2021/05/04 11:03:34;;;;;;;5.38;2.15;;;;;;;;;;5019733;28;20045;-88
2021/05/04 11:06:01;;;;;;;4.15;2.22;;;;;;;;;;5019547;28;20058;-88
2021/05/04 11:08:48;;;;;;;5.18;2.00;;;;;;;;;;5019495;28;20081;-88
2021/05/04 11:11:20;;;;;;;2.78;1.90;;;;;;;;;;4961032;29;20056;-88
2021/05/04 11:13:47;;;;;;;3.72;2.50;;;;;;;;;;4960903;29;20655;-88
2021/05/04 11:16:31;;;;;;;4.80;2.33;;;;;;;;;;4960975;29;20036;-88
2021/05/04 11:19:04;;;;;;;5.30;2.58;;;;;;;;;;5035209;28;20040;-88
2021/05/04 11:21:52;;;;;;;5.78;2.55;;;;;;;;;;5038838;28;20029;-89
2021/05/04 11:24:18;;;;;;;8.15;3.33;;;;;;;;;;5038672;28;20038;-89
2021/05/04 11:26:47;;;;;;;3.67;2.15;;;;;;;;;;5022211;28;20029;-88
2021/05/04 11:29:14;;;;;;;5.22;1.73;;;;;;;;;;5038862;28;20037;-88
2021/05/04 11:31:41;;;;;;;5.82;2.72;;;;;;;;;;5038755;28;20025;-88
2021/05/04 11:34:26;;;;;;;5.57;1.80;;;;;;;;;;5038577;28;20030;-88
2021/05/04 11:36:52;;;;;;;5.15;2.53;;;;;;;;;;5038844;28;20026;-88
2021/05/04 11:39:18;;;;;;;2.28;1.83;;;;;;;;;;5038787;28;20025;-89
2021/05/04 11:41:53;;;;;;;6.05;2.28;;;;;;;;;;5039336;28;20513;-88
2021/05/04 11:44:26;;;;;;;5.60;2.30;;;;;;;;;;5058574;28;20047;-87
2021/05/04 11:46:53;;;;;;;7.47;2.45;;;;;;;;;;5041585;28;20114;-87
2021/05/04 11:49:29;;;;;;;4.78;2.10;;;;;;;;;;5115929;28;20027;-86
2021/05/04 11:52:08;;;;;;;3.03;1.70;;;;;;;;;;5120823;28;20069;-87
2021/05/04 11:54:34;;;;;;;3.85;2.03;;;;;;;;;;5119430;28;20046;-89
2021/05/04 11:57:01;;;;;;;5.07;1.70;;;;;;;;;;5119930;28;20447;-89
2021/05/04 11:59:27;;;;;;;9.65;2.60;;;;;;;;;;5120461;28;20041;-88
2021/05/04 12:01:53;;;;;;;3.80;1.98;;;;;;;;;;5120114;28;20027;-87
2021/05/04 12:04:21;;;;;;;4.45;1.60;;;;;;;;;;5120360;28;20061;-86
2021/05/04 12:06:47;;;;;;;6.15;2.45;;;;;;;;;;5118988;28;20035;-86
2021/05/04 12:09:14;;;;;;;3.05;1.70;;;;;;;;;;5120416;28;20413;-87
2021/05/04 12:11:40;;;;;;;3.85;1.90;;;;;;;;;;5120158;28;20408;-88
2021/05/04 12:14:07;;;;;;;5.10;1.80;;;;;;;;;;5119061;28;20035;-87
2021/05/04 12:16:33;;;;;;;6.32;2.08;;;;;;;;;;5120504;28;20056;-87
2021/05/04 12:18:59;;;;;;;8.52;2.17;;;;;;;;;;5119322;28;20015;-87
2021/05/04 12:21:26;;;;;;;5.05;1.90;;;;;;;;;;5120070;28;20041;-87
2021/05/04 12:23:52;;;;;;;4.75;2.10;;;;;;;;;;5120082;28;20058;-87
2021/05/04 12:26:21;;;;;;;4.65;2.00;;;;;;;;;;5120098;28;20171;-88
2021/05/04 12:28:51;;;;;;;4.88;1.80;;;;;;;;;;5119296;28;20110;-88
2021/05/04 12:31:23;;;;;;;2.38;1.73;;;;;;;;;;5120116;28;20023;-84
2021/05/04 12:33:50;;;;;;;7.38;3.38;;;;;;;;;;5118282;28;20333;-84
2021/05/04 12:36:39;;;;;;;3.13;2.55;;;;;;;;;;5118590;28;20111;-84
2021/05/04 12:39:12;;;;;;;4.10;2.35;;;;;;;;;;5119335;28;20098;-84
2021/05/04 12:41:47;;;;;;;5.32;2.50;;;;;;;;;;5119704;28;20299;-84
2021/05/04 12:44:23;;;;;;;4.18;2.05;;;;;;;;;;5119630;28;20040;-87
2021/05/04 12:46:56;;;;;;;5.88;1.70;;;;;;;;;;5120061;28;20103;-87
2021/05/04 12:49:34;;;;;;;5.13;2.03;;;;;;;;;;5119765;28;20035;-87
2021/05/04 12:52:07;;;;;;;6.70;2.22;;;;;;;;;;5119528;28;20023;-87
2021/05/04 12:54:35;;;;;;;2.83;1.77;;;;;;;;;;5119657;28;20035;-86
2021/05/04 12:57:01;;;;;;;4.20;2.45;;;;;;;;;;5118394;28;20023;-84
2021/05/04 12:59:28;;;;;;;5.30;1.95;;;;;;;;;;5119362;28;20365;-84
2021/05/04 13:01:55;;;;;;;3.72;2.22;;;;;;;;;;5118028;28;20058;-84
2021/05/04 13:04:58;;;;;;;4.50;2.35;;;;;;;;;;5119313;28;20023;-84
2021/05/04 13:07:47;;;;;;;6.35;2.65;;;;;;;;;;5118513;28;20024;-81
2021/05/04 13:19:31;;;;;;;17.35;10.85;;;;;;;;;;5098338;28;20134;-84
2021/05/04 13:30:27;;;;;;;3.80;2.10;;;;;;;;;;5098319;28;20043;-84
2021/05/04 13:32:57;;;;;;;6.90;3.80;;;;;;;;;;5098206;28;20103;-84
2021/05/04 13:35:27;;;;;;;34.83;22.65;;;;;;;;;;5098260;28;20039;-84
2021/05/04 13:48:52;;;;;;;2.75;2.03;;;;;;;;;;5056631;28;20039;-85
2021/05/04 13:51:18;;;;;;;3.55;2.30;;;;;;;;;;5056186;28;20033;-85
2021/05/04 13:53:44;;;;;;;8.27;2.03;;;;;;;;;;5056011;28;20041;-85
2021/05/04 13:56:11;;;;;;;11.40;2.88;;;;;;;;;;5042398;28;20067;-86
2021/05/04 13:58:37;;;;;;;8.40;2.08;;;;;;;;;;5075886;28;20025;-85
2021/05/04 14:03:48;;;;;;;4.10;2.30;;;;;;;;;;5076545;28;20338;-85
2021/05/04 14:27:45;;;;;;;8.40;3.30;;;;;;;;;;5097848;28;20028;-86
2021/05/04 14:33:34;;;;;;;6.13;2.75;;;;;;;;;;5097779;28;20131;-87
2021/05/04 14:36:26;;;;;;;5.75;2.30;;;;;;;;;;5097984;28;20027;-86
2021/05/04 14:38:56;;;;;;;6.63;2.85;;;;;;;;;;5097438;28;20066;-86
2021/05/04 14:47:13;;;;;;;6.35;2.40;;;;;;;;;;5097596;28;20035;-86
2021/05/04 14:58:26;;;;;;;6.03;2.88;;;;;;;;;;5097781;28;20397;-86
2021/05/04 15:03:18;;;;;;;5.65;2.85;;;;;;;;;;5097536;28;20406;-86
2021/05/04 15:05:44;;;;;;;8.20;3.00;;;;;;;;;;5097538;28;20086;-86
2021/05/04 15:08:11;;;;;;;4.40;3.65;;;;;;;;;;5097225;28;20038;-86
2021/05/04 15:10:37;;;;;;;5.45;3.70;;;;;;;;;;5096010;28;20044;-85
2021/05/04 15:13:06;;;;;;;5.95;2.63;;;;;;;;;;5097104;28;20034;-87
2021/05/04 15:18:19;;;;;;;4.68;2.47;;;;;;;;;;5097192;28;20021;-86
2021/05/04 15:23:24;;;;;;;6.47;3.08;;;;;;;;;;5097077;28;20055;-86
2021/05/04 15:25:52;;;;;;;5.28;3.55;;;;;;;;;;5097536;28;20028;-87
2021/05/04 15:28:18;;;;;;;11.25;4.18;;;;;;;;;;5096327;28;20024;-86
2021/05/04 15:30:44;;;;;;;10.77;3.67;;;;;;;;;;5097380;28;20024;-86
2021/05/04 15:33:11;;;;;;;10.07;3.35;;;;;;;;;;5097067;28;20028;-86
2021/05/04 15:35:38;;;;;;;6.03;3.17;;;;;;;;;;5096358;28;20019;-85
2021/05/04 15:38:05;;;;;;;6.70;3.08;;;;;;;;;;5100266;28;20043;-86
2021/05/04 15:40:31;;;;;;;5.85;2.83;;;;;;;;;;5100786;28;20473;-86
2021/05/04 15:42:58;;;;;;;5.88;3.10;;;;;;;;;;5106989;28;20035;-86
2021/05/04 15:45:25;;;;;;;8.65;3.05;;;;;;;;;;5121205;28;20016;-86
2021/05/04 15:53:43;;;;;;;4.85;2.70;;;;;;;;;;5121085;28;20042;-86
2021/05/04 16:10:21;;;;;;;4.82;2.80;;;;;;;;;;5121051;28;20474;-86
2021/05/04 16:12:47;;;;;;;8.80;4.10;;;;;;;;;;5120607;28;20376;-85
2021/05/04 16:15:13;;;;;;;5.68;3.10;;;;;;;;;;5119532;28;20038;-85
2021/05/04 16:17:39;;;;;;;11.82;3.40;;;;;;;;;;5120629;28;20020;-86
2021/05/04 16:20:18;;;;;;;6.95;3.30;;;;;;;;;;5120366;28;20026;-85
2021/05/04 16:22:47;;;;;;;7.55;3.72;;;;;;;;;;5120075;28;20078;-86
2021/05/04 16:25:18;;;;;;;5.47;3.35;;;;;;;;;;5118703;28;20036;-85
2021/05/04 16:30:20;;;;;;;7.95;4.05;;;;;;;;;;5119957;28;20050;-85
2021/05/04 16:32:46;;;;;;;6.25;3.70;;;;;;;;;;5119077;28;20030;-85
2021/05/04 16:35:13;;;;;;;14.93;5.22;;;;;;;;;;5118844;28;20102;-83